createdAt,value
2022-12-01T00:00:16.929Z,96537.75
2022-12-01T00:02:49.934Z,96538.25
2022-12-01T00:05:22.908Z,96537.63
2022-12-01T00:07:57.475Z,96541.41
2022-12-01T00:10:29.363Z,96529.19
2022-12-01T00:13:05.856Z,96534.69
2022-12-01T00:15:38.715Z,96530.44
2022-12-01T00:18:11.812Z,96534.38
2022-12-01T00:20:44.642Z,96530.94
2022-12-01T00:23:17.755Z,96527.19
2022-12-01T00:25:50.796Z,96529.06
2022-12-01T00:28:24.933Z,96526.91
2022-12-01T00:30:57.731Z,96526.69
2022-12-01T00:33:30.507Z,96524.03
2022-12-01T00:36:04.474Z,96518.25
2022-12-01T00:38:37.644Z,96521.22
2022-12-01T00:41:10.824Z,96524.66
2022-12-01T00:43:45.009Z,96523.09
2022-12-01T00:46:17.923Z,96519.44
2022-12-01T00:48:50.741Z,96525.53
2022-12-01T00:51:24.471Z,96523.19
2022-12-01T00:53:59.985Z,96523.78
2022-12-01T00:56:32.806Z,96519.56
2022-12-01T00:59:06.973Z,96530.97
2022-12-01T01:01:39.871Z,96529.41
2022-12-01T01:04:13.978Z,96527.03
2022-12-01T01:06:47.027Z,96530.28
2022-12-01T01:09:19.826Z,96526.06
2022-12-01T01:11:52.787Z,96531.41
2022-12-01T01:14:27.003Z,96532.66
2022-12-01T01:16:59.910Z,96534.53
2022-12-01T01:19:33.058Z,96531.84
2022-12-01T01:22:05.920Z,96540.34
2022-12-01T01:24:39.072Z,96535.00
2022-12-01T01:27:11.928Z,96540.81
2022-12-01T01:29:47.715Z,96541.00
2022-12-01T01:32:20.891Z,96536.47
2022-12-01T01:34:53.849Z,96539.13
2022-12-01T01:37:26.871Z,96550.25
2022-12-01T01:39:59.753Z,96544.94
2022-12-01T01:42:32.708Z,96542.56
2022-12-01T01:45:20.712Z,96535.88
2022-12-01T01:47:55.155Z,96538.53
2022-12-01T01:50:29.652Z,96533.72
2022-12-01T01:53:05.260Z,96536.88
2022-12-01T01:55:39.318Z,96532.63
2022-12-01T01:58:12.663Z,96529.66
2022-12-01T02:00:47.533Z,96539.41
2022-12-01T02:03:21.486Z,96538.31
2022-12-01T02:05:54.347Z,96533.81
2022-12-01T02:08:27.361Z,96534.28
2022-12-01T02:11:15.318Z,96528.34
2022-12-01T02:13:57.232Z,96525.41
2022-12-01T02:16:38.217Z,96528.56
2022-12-01T02:19:42.218Z,96527.63
2022-12-01T02:22:28.683Z,96526.56
2022-12-01T02:25:21.584Z,96528.91
2022-12-01T02:28:15.266Z,96526.25
2022-12-01T02:30:55.833Z,96520.94
2022-12-01T02:33:36.816Z,96512.47
2022-12-01T02:36:16.765Z,96512.47
2022-12-01T02:38:56.877Z,96513.56
2022-12-01T02:41:34.483Z,96511.97
2022-12-01T02:44:12.702Z,96514.34
2022-12-01T02:46:50.907Z,96512.47
2022-12-01T02:49:27.756Z,96518.28
2022-12-01T02:52:01.753Z,96520.16
2022-12-01T02:54:35.895Z,96523.59
2022-12-01T02:57:10.307Z,96512.66
2022-12-01T02:59:44.631Z,96523.78
2022-12-01T03:02:30.005Z,96513.63
2022-12-01T03:05:08.416Z,96512.84
2022-12-01T03:07:51.421Z,96513.63
2022-12-01T03:10:31.471Z,96507.22
2022-12-01T03:13:18.028Z,96522.28
2022-12-01T03:15:58.970Z,96513.53
2022-12-01T03:18:38.833Z,96512.13
2022-12-01T03:21:16.239Z,96508.41
2022-12-01T03:23:53.163Z,96507.31
2022-12-01T03:26:30.575Z,96504.84
2022-12-01T03:29:07.906Z,96500.47
2022-12-01T03:31:45.001Z,96500.78
2022-12-01T03:34:25.815Z,96502.84
2022-12-01T03:37:06.007Z,96509.44
2022-12-01T03:39:41.145Z,96505.19
2022-12-01T03:42:19.012Z,96501.16
2022-12-01T03:44:55.564Z,96511.00
2022-12-01T03:47:32.481Z,96513.06
2022-12-01T03:50:11.388Z,96510.88
2022-12-01T03:52:50.571Z,96511.66
2022-12-01T03:55:27.239Z,96502.59
2022-12-01T03:58:06.796Z,96509.50
2022-12-01T04:00:40.640Z,96519.50
2022-12-01T04:03:20.009Z,96517.63
2022-12-01T04:05:54.760Z,96517.34
2022-12-01T04:08:27.587Z,96516.09
2022-12-01T04:11:00.592Z,96524.38
2022-12-01T04:13:33.134Z,96515.91
2022-12-01T04:16:06.687Z,96518.88
2022-12-01T04:18:39.708Z,96526.06
2022-12-01T04:21:13.821Z,96523.41
2022-12-01T04:24:01.610Z,96519.78
2022-12-01T04:26:37.001Z,96522.44
2022-12-01T04:29:11.398Z,96515.84
2022-12-01T04:31:44.596Z,96517.22
2022-12-01T04:34:17.571Z,96523.97
2022-12-01T04:36:52.045Z,96519.53
2022-12-01T04:39:24.943Z,96524.63
2022-12-01T04:41:57.996Z,96524.47
2022-12-01T04:44:34.811Z,96528.78
2022-12-01T04:47:08.471Z,96525.19
2022-12-01T04:49:41.376Z,96529.22
2022-12-01T04:52:15.625Z,96524.97
2022-12-01T04:54:48.507Z,96527.78
2022-12-01T04:57:21.342Z,96531.50
2022-12-01T04:59:54.246Z,96535.53
2022-12-01T05:02:27.306Z,96530.53
2022-12-01T05:05:00.357Z,96527.41
2022-12-01T05:07:34.607Z,96523.94
2022-12-01T05:10:08.978Z,96534.09
2022-12-01T05:12:41.914Z,96530.16
2022-12-01T05:15:14.778Z,96530.44
2022-12-01T05:17:47.899Z,96527.78
2022-12-01T05:20:40.119Z,96526.25
2022-12-01T05:23:16.988Z,96530.44
2022-12-01T05:25:50.449Z,96534.22
2022-12-01T05:28:25.364Z,96536.88
2022-12-01T05:30:58.660Z,96535.75
2022-12-01T05:33:31.975Z,96533.44
2022-12-01T05:36:06.014Z,96543.75
2022-12-01T05:38:40.354Z,96535.75
2022-12-01T05:41:13.139Z,96536.56
2022-12-01T05:43:46.509Z,96533.09
2022-12-01T05:46:19.389Z,96535.47
2022-12-01T05:48:52.328Z,96538.13
2022-12-01T05:51:25.516Z,96534.38
2022-12-01T05:54:01.646Z,96536.75
2022-12-01T05:56:34.483Z,96537.84
2022-12-01T05:59:07.431Z,96534.09
2022-12-01T06:01:40.621Z,96536.25
2022-12-01T06:04:13.561Z,96537.03
2022-12-01T06:06:46.444Z,96536.25
2022-12-01T06:09:20.660Z,96534.22
2022-12-01T06:11:53.642Z,96537.16
2022-12-01T06:14:26.466Z,96541.69
2022-12-01T06:16:59.424Z,96538.84
2022-12-01T06:19:32.964Z,96536.47
2022-12-01T06:22:05.978Z,96539.44
2022-12-01T06:24:40.324Z,96535.22
2022-12-01T06:27:13.399Z,96545.84
2022-12-01T06:29:49.299Z,96549.28
2022-12-01T06:32:22.266Z,96548.19
2022-12-01T06:34:55.126Z,96547.91
2022-12-01T06:37:31.155Z,96552.91
2022-12-01T06:40:06.506Z,96557.34
2022-12-01T06:42:39.338Z,96554.38
2022-12-01T06:45:12.670Z,96559.09
2022-12-01T06:47:48.042Z,96558.53
2022-12-01T06:50:21.583Z,96557.91
2022-12-01T06:52:58.189Z,96564.69
2022-12-01T06:55:34.103Z,96565.16
2022-12-01T06:58:08.511Z,96564.56
2022-12-01T07:00:41.680Z,96563.19
2022-12-01T07:03:14.793Z,96567.91
2022-12-01T07:05:56.560Z,96576.56
2022-12-01T07:08:34.680Z,96575.16
2022-12-01T07:11:12.677Z,96580.72
2022-12-01T07:13:46.422Z,96584.16
2022-12-01T07:16:19.395Z,96584.34
2022-12-01T07:18:52.880Z,96579.81
2022-12-01T07:21:26.048Z,96576.38
2022-12-01T07:23:59.801Z,96587.19
2022-12-01T07:26:35.378Z,96582.06
2022-12-01T07:29:08.769Z,96580.97
2022-12-01T07:31:41.983Z,96589.75
2022-12-01T07:34:15.175Z,96588.63
2022-12-01T07:36:48.932Z,96585.69
2022-12-01T07:39:21.954Z,96584.59
2022-12-01T07:41:56.486Z,96593.06
2022-12-01T07:44:29.537Z,96594.34
2022-12-01T07:47:02.403Z,96596.69
2022-12-01T07:49:35.909Z,96594.53
2022-12-01T07:52:08.793Z,96592.34
2022-12-01T07:54:42.020Z,96592.84
2022-12-01T07:57:18.174Z,96602.88
2022-12-01T07:59:53.161Z,96596.00
2022-12-01T08:02:26.116Z,96595.66
2022-12-01T08:04:59.341Z,96599.91
2022-12-01T08:07:32.213Z,96602.88
2022-12-01T08:10:05.515Z,96598.34
2022-12-01T08:12:39.747Z,96601.31
2022-12-01T08:15:12.935Z,96599.41
2022-12-01T08:17:46.113Z,96598.66
2022-12-01T08:20:23.747Z,96597.38
2022-12-01T08:22:57.393Z,96597.66
2022-12-01T08:25:30.330Z,96596.88
2022-12-01T08:28:05.024Z,96596.88
2022-12-01T08:30:37.882Z,96605.16
2022-12-01T08:33:10.783Z,96596.09
2022-12-01T08:35:43.651Z,96597.19
2022-12-01T08:38:17.095Z,96593.44
2022-12-01T08:40:49.946Z,96596.59
2022-12-01T08:46:17.157Z,96596.00
2022-12-01T08:48:50.086Z,96598.03
2022-12-01T08:51:22.854Z,96595.06
2022-12-01T08:53:56.936Z,96596.34
2022-12-01T08:56:32.766Z,96603.72
2022-12-01T08:59:07.334Z,96594.34
2022-12-01T09:01:51.999Z,96602.03
2022-12-01T09:04:27.500Z,96595.78
2022-12-01T09:07:00.738Z,96596.56
2022-12-01T09:09:37.222Z,96601.59
2022-12-01T09:12:10.629Z,96602.88
2022-12-01T09:14:48.227Z,96600.72
2022-12-01T09:17:21.283Z,96608.69
2022-12-01T09:19:54.073Z,96607.91
2022-12-01T09:22:26.893Z,96609.50
2022-12-01T09:25:00.044Z,96612.91
2022-12-01T09:27:32.874Z,96613.22
2022-12-01T09:30:08.713Z,96612.44
2022-12-01T09:32:41.849Z,96608.81
2022-12-01T09:35:14.819Z,96610.19
2022-12-01T09:37:47.721Z,96612.38
2022-12-01T09:40:20.871Z,96622.06
2022-12-01T09:42:53.834Z,96616.25
2022-12-01T09:45:31.603Z,96621.56
2022-12-01T09:48:07.656Z,96613.91
2022-12-01T09:50:40.511Z,96608.09
2022-12-01T09:53:18.887Z,96618.72
2022-12-01T09:55:51.959Z,96613.22
2022-12-01T09:58:30.972Z,96611.03
2022-12-01T10:01:05.435Z,96615.09
2022-12-01T10:03:46.490Z,96604.75
2022-12-01T10:06:27.665Z,96602.06
2022-12-01T10:09:08.009Z,96604.75
2022-12-01T10:11:43.064Z,96593.34
2022-12-01T10:14:20.361Z,96595.22
2022-12-01T10:17:05.624Z,96596.47
2022-12-01T10:19:45.994Z,96591.13
2022-12-01T10:22:35.224Z,96593.78
2022-12-01T10:25:19.203Z,96578.31
2022-12-01T10:28:24.556Z,96587.75
2022-12-01T10:31:05.977Z,96582.13
2022-12-01T10:33:48.794Z,96571.66
2022-12-01T10:36:22.452Z,96571.03
2022-12-01T10:38:55.681Z,96567.47
2022-12-01T10:41:30.865Z,96561.22
2022-12-01T10:44:06.973Z,96565.66
2022-12-01T10:46:45.717Z,96567.69
2022-12-01T10:49:21.204Z,96567.38
2022-12-01T10:51:56.036Z,96565.81
2022-12-01T10:54:34.403Z,96562.84
2022-12-01T10:57:08.674Z,96550.63
2022-12-01T10:59:54.172Z,96561.47
2022-12-01T11:02:30.331Z,96561.47
2022-12-01T11:05:07.277Z,96553.97
2022-12-01T11:07:45.153Z,96558.66
2022-12-01T11:10:20.896Z,96554.44
2022-12-01T11:12:57.856Z,96552.88
2022-12-01T11:15:35.447Z,96548.00
2022-12-01T11:18:33.912Z,96548.50
2022-12-01T11:21:14.621Z,96546.63
2022-12-01T11:23:52.264Z,96554.91
2022-12-01T11:26:27.752Z,96555.69
2022-12-01T11:29:04.180Z,96549.88
2022-12-01T11:31:43.189Z,96549.88
2022-12-01T11:34:45.262Z,96544.41
2022-12-01T11:37:22.752Z,96545.78
2022-12-01T11:39:55.781Z,96540.75
2022-12-01T11:42:34.397Z,96543.72
2022-12-01T11:45:20.011Z,96547.66
2022-12-01T11:48:01.543Z,96548.16
2022-12-01T11:50:37.435Z,96550.50
2022-12-01T11:53:34.139Z,96548.00
2022-12-01T11:56:19.908Z,96548.19
2022-12-01T11:59:02.877Z,96541.00
2022-12-01T12:01:45.599Z,96533.19
2022-12-01T12:04:47.902Z,96539.44
2022-12-01T12:07:31.775Z,96537.75
2022-12-01T12:10:21.971Z,96535.25
2022-12-01T12:13:07.125Z,96537.47
2022-12-01T12:15:53.529Z,96540.78
2022-12-01T12:18:45.328Z,96535.00
2022-12-01T12:21:30.779Z,96533.31
2022-12-01T12:24:23.579Z,96535.03
2022-12-01T12:27:05.997Z,96543.22
2022-12-01T12:29:53.244Z,96542.28
2022-12-01T12:32:48.720Z,96538.69
2022-12-01T12:35:35.386Z,96542.59
2022-12-01T12:38:30.517Z,96532.72
2022-12-01T12:41:18.084Z,96530.84
2022-12-01T12:44:04.390Z,96535.38
2022-12-01T12:46:47.242Z,96530.34
2022-12-01T12:49:32.495Z,96533.34
2022-12-01T12:52:09.168Z,96528.16
2022-12-01T12:54:49.583Z,96533.34
2022-12-01T12:57:28.433Z,96524.38
2022-12-01T13:00:08.100Z,96524.97
2022-12-01T13:02:44.420Z,96527.00
2022-12-01T13:05:21.763Z,96521.50
2022-12-01T13:08:07.868Z,96531.38
2022-12-01T13:10:49.268Z,96517.91
2022-12-01T13:13:28.284Z,96520.38
2022-12-01T13:16:04.555Z,96525.56
2022-12-01T13:18:43.629Z,96525.88
2022-12-01T13:21:20.314Z,96515.81
2022-12-01T13:23:53.857Z,96514.56
2022-12-01T13:26:26.849Z,96518.78
2022-12-01T13:29:07.887Z,96508.59
2022-12-01T13:31:49.617Z,96513.34
2022-12-01T13:34:26.585Z,96512.69
2022-12-01T13:36:59.624Z,96509.72
2022-12-01T13:39:35.716Z,96507.06
2022-12-01T13:42:10.438Z,96508.16
2022-12-01T13:44:45.686Z,96509.72
2022-12-01T13:47:38.750Z,96505.97
2022-12-01T13:50:54.214Z,96500.94
2022-12-01T13:53:35.806Z,96506.59
2022-12-01T13:56:39.753Z,96506.91
2022-12-01T14:00:05.706Z,96504.25
2022-12-01T14:02:40.140Z,96502.66
2022-12-01T14:05:45.171Z,96496.72
2022-12-01T14:08:23.767Z,96504.69
2022-12-01T14:11:00.649Z,96497.81
2022-12-01T14:13:52.903Z,96497.50
2022-12-01T14:16:26.370Z,96502.03
2022-12-01T14:19:00.898Z,96501.59
2022-12-01T14:21:46.838Z,96510.03
2022-12-01T14:24:24.231Z,96510.66
2022-12-01T14:26:57.307Z,96507.53
2022-12-01T14:29:33.334Z,96517.09
2022-12-01T14:32:24.390Z,96513.16
2022-12-01T14:35:06.110Z,96507.66
2022-12-01T14:37:45.023Z,96508.56
2022-12-01T14:40:29.350Z,96503.88
2022-12-01T14:43:22.582Z,96518.59
2022-12-01T14:46:04.084Z,96514.84
2022-12-01T14:48:41.991Z,96518.28
2022-12-01T14:51:28.058Z,96515.28
2022-12-01T14:54:03.455Z,96518.44
2022-12-01T14:56:46.993Z,96520.03
2022-12-01T14:59:22.567Z,96513.00
2022-12-01T15:01:58.183Z,96523.81
2022-12-01T15:04:33.529Z,96524.59
2022-12-01T15:07:08.511Z,96518.16
2022-12-01T15:10:04.268Z,96522.41
2022-12-01T15:12:37.145Z,96522.72
2022-12-01T15:15:20.936Z,96521.81
2022-12-01T15:17:57.894Z,96523.19
2022-12-01T15:20:33.450Z,96519.75
2022-12-01T15:23:16.022Z,96516.00
2022-12-01T15:25:48.853Z,96515.50
2022-12-01T15:28:30.067Z,96511.28
2022-12-01T15:31:11.076Z,96517.22
2022-12-01T15:33:48.471Z,96516.25
2022-12-01T15:36:21.731Z,96510.44
2022-12-01T15:38:56.170Z,96506.84
2022-12-01T15:41:30.024Z,96509.31
2022-12-01T15:44:05.620Z,96517.16
2022-12-01T15:46:38.455Z,96508.19
2022-12-01T15:49:18.906Z,96509.78
2022-12-01T15:51:53.126Z,96513.53
2022-12-01T15:54:27.703Z,96507.72
2022-12-01T15:57:01.170Z,96508.81
2022-12-01T15:59:39.646Z,96510.06
2022-12-01T16:02:28.372Z,96514.13
2022-12-01T16:05:03.558Z,96505.97
2022-12-01T16:08:11.601Z,96517.72
2022-12-01T16:10:35.174Z,96511.91
2022-12-01T16:13:47.851Z,96507.38
2022-12-01T16:16:39.573Z,96516.28
2022-12-01T16:19:31.018Z,96513.94
2022-12-01T16:22:16.889Z,96517.97
2022-12-01T16:24:52.642Z,96518.28
2022-12-01T16:27:29.784Z,96510.59
2022-12-01T16:30:06.404Z,96514.66
2022-12-01T16:32:42.696Z,96512.00
2022-12-01T16:35:24.693Z,96510.13
2022-12-01T16:37:58.101Z,96514.97
2022-12-01T16:40:31.147Z,96515.75
2022-12-01T16:43:05.426Z,96513.41
2022-12-01T16:45:38.220Z,96512.31
2022-12-01T16:48:11.112Z,96509.94
2022-12-01T16:50:44.191Z,96513.69
2022-12-01T16:53:17.370Z,96515.88
2022-12-01T16:55:53.383Z,96516.66
2022-12-01T16:58:27.813Z,96511.97
2022-12-01T17:01:00.744Z,96513.34
2022-12-01T17:03:34.402Z,96514.44
2022-12-01T17:06:07.578Z,96510.97
2022-12-01T17:08:40.379Z,96514.25
2022-12-01T17:11:14.712Z,96507.69
2022-12-01T17:13:49.193Z,96513.28
2022-12-01T17:16:22.261Z,96520.50
2022-12-01T17:18:55.163Z,96516.56
2022-12-01T17:21:28.563Z,96512.66
2022-12-01T17:24:01.415Z,96504.66
2022-12-01T17:26:34.598Z,96510.28
2022-12-01T17:29:09.123Z,96516.09
2022-12-01T17:31:48.013Z,96520.00
2022-12-01T17:34:21.236Z,96515.31
2022-12-01T17:36:54.192Z,96516.69
2022-12-01T17:39:27.208Z,96517.00
2022-12-01T17:42:00.354Z,96516.50
2022-12-01T17:44:35.151Z,96503.19
2022-12-01T17:47:08.278Z,96515.41
2022-12-01T17:49:41.320Z,96509.31
2022-12-01T17:52:16.318Z,96519.94
2022-12-01T17:54:52.491Z,96518.06
2022-12-01T17:57:25.593Z,96523.41
2022-12-01T18:00:03.441Z,96524.19
2022-12-01T18:02:37.881Z,96523.69
2022-12-01T18:05:11.368Z,96528.22
2022-12-01T18:07:44.303Z,96530.09
2022-12-01T18:10:18.044Z,96527.44
2022-12-01T18:12:51.396Z,96516.78
2022-12-01T18:15:29.239Z,96528.22
2022-12-01T18:18:04.791Z,96527.44
2022-12-01T18:20:42.384Z,96531.22
2022-12-01T18:23:15.225Z,96534.16
2022-12-01T18:25:48.378Z,96536.53
2022-12-01T18:28:21.291Z,96534.47
2022-12-01T18:30:55.703Z,96531.03
2022-12-01T18:33:32.720Z,96530.22
2022-12-01T18:36:06.654Z,96533.19
2022-12-01T18:38:39.815Z,96532.41
2022-12-01T18:41:12.699Z,96536.16
2022-12-01T18:43:45.669Z,96536.47
2022-12-01T18:46:21.578Z,96539.94
2022-12-01T18:49:02.131Z,96533.31
2022-12-01T18:51:37.522Z,96535.19
2022-12-01T18:54:19.696Z,96527.81
2022-12-01T18:56:55.211Z,96525.44
2022-12-01T18:59:29.251Z,96523.06
2022-12-01T19:02:09.182Z,96528.41
2022-12-01T19:04:42.108Z,96525.53
2022-12-01T19:07:14.995Z,96519.72
2022-12-01T19:09:47.919Z,96520.81
2022-12-01T19:12:21.116Z,96533.03
2022-12-01T19:14:54.268Z,96519.25
2022-12-01T19:17:28.533Z,96526.91
2022-12-01T19:20:01.411Z,96525.34
2022-12-01T19:22:34.977Z,96523.31
2022-12-01T19:25:11.260Z,96520.66
2022-12-01T19:27:44.387Z,96519.84
2022-12-01T19:30:17.617Z,96523.59
2022-12-01T19:32:53.304Z,96521.25
2022-12-01T19:35:26.117Z,96520.44
2022-12-01T19:37:58.952Z,96521.81
2022-12-01T19:40:33.970Z,96516.03
2022-12-01T19:43:06.816Z,96517.13
2022-12-01T19:45:43.631Z,96522.75
2022-12-01T19:48:18.121Z,96519.00
2022-12-01T19:50:51.028Z,96513.97
2022-12-01T19:53:31.870Z,96515.34
2022-12-01T19:56:07.158Z,96509.25
2022-12-01T19:58:40.540Z,96522.88
2022-12-01T20:01:15.639Z,96520.22
2022-12-01T20:03:52.655Z,96524.75
2022-12-01T20:06:27.875Z,96524.25
2022-12-01T20:09:02.974Z,96529.84
2022-12-01T20:11:41.177Z,96522.47
2022-12-01T20:14:14.433Z,96518.25
2022-12-01T20:16:50.275Z,96527.31
2022-12-01T20:19:27.501Z,96519.94
2022-12-01T20:22:02.836Z,96517.06
2022-12-01T20:24:43.071Z,96522.88
2022-12-01T20:27:18.871Z,96528.03
2022-12-01T20:29:56.843Z,96530.38
2022-12-01T20:32:31.148Z,96521.94
2022-12-01T20:35:06.156Z,96523.50
2022-12-01T20:37:43.505Z,96519.28
2022-12-01T20:40:17.678Z,96517.41
2022-12-01T20:42:50.466Z,96516.00
2022-12-01T20:45:23.312Z,96518.84
2022-12-01T20:47:56.116Z,96525.44
2022-12-01T20:50:30.264Z,96520.31
2022-12-01T20:53:03.080Z,96520.50
2022-12-01T20:55:36.728Z,96515.34
2022-12-01T20:58:09.939Z,96517.72
2022-12-01T21:00:47.875Z,96517.13
2022-12-01T21:03:26.994Z,96518.22
2022-12-01T21:06:13.145Z,96518.72
2022-12-01T21:08:47.840Z,96521.66
2022-12-01T21:11:44.689Z,96520.28
2022-12-01T21:14:22.207Z,96522.63
2022-12-01T21:16:57.647Z,96511.97
2022-12-01T21:19:46.408Z,96515.44
2022-12-01T21:22:20.613Z,96515.13
2022-12-01T21:25:03.654Z,96524.38
2022-12-01T21:27:36.422Z,96506.56
2022-12-01T21:30:17.042Z,96506.72
2022-12-01T21:32:50.642Z,96507.84
2022-12-01T21:35:25.724Z,96500.31
2022-12-01T21:38:03.257Z,96509.09
2022-12-01T21:40:36.087Z,96504.84
2022-12-01T21:43:16.985Z,96513.31
2022-12-01T21:45:53.250Z,96507.22
2022-12-01T21:48:26.160Z,96514.41
2022-12-01T21:51:02.756Z,96502.97
2022-12-01T21:53:39.728Z,96502.19
2022-12-01T21:56:21.274Z,96507.50
2022-12-01T21:58:56.113Z,96518.16
2022-12-01T22:01:30.857Z,96509.38
2022-12-01T22:04:13.296Z,96506.91
2022-12-01T22:06:49.130Z,96503.19
2022-12-01T22:09:27.456Z,96513.22
2022-12-01T22:12:32.449Z,96504.16
2022-12-01T22:15:41.863Z,96502.00
2022-12-01T22:18:22.204Z,96508.88
2022-12-01T22:20:55.369Z,96502.28
2022-12-01T22:23:33.507Z,96499.03
2022-12-01T22:26:17.789Z,96502.97
2022-12-01T22:28:54.804Z,96494.38
2022-12-01T22:31:42.162Z,96502.53
2022-12-01T22:34:18.119Z,96494.75
2022-12-01T22:37:00.142Z,96495.69
2022-12-01T22:39:40.147Z,96493.53
2022-12-01T22:42:28.118Z,96494.31
2022-12-01T22:45:04.076Z,96494.31
2022-12-01T22:47:36.964Z,96491.66
2022-12-01T22:50:25.385Z,96486.81
2022-12-01T22:53:00.862Z,96489.28
2022-12-01T22:55:34.702Z,96487.22
2022-12-01T22:58:21.726Z,96485.34
2022-12-01T23:00:57.938Z,96476.44
2022-12-01T23:03:30.997Z,96479.09
2022-12-01T23:06:23.979Z,96476.72
2022-12-01T23:08:56.789Z,96484.72
2022-12-01T23:11:29.860Z,96478.59
2022-12-01T23:14:28.172Z,96474.84
2022-12-01T23:17:26.590Z,96473.28
2022-12-01T23:20:38.004Z,96469.81
2022-12-01T23:23:15.140Z,96478.09
2022-12-01T23:26:26.082Z,96480.28
2022-12-01T23:29:00.432Z,96474.00
2022-12-01T23:31:34.701Z,96478.06
2022-12-01T23:34:14.638Z,96471.16
2022-12-01T23:36:50.695Z,96474.91
2022-12-01T23:39:30.938Z,96469.09
2022-12-01T23:42:05.530Z,96470.97
2022-12-01T23:45:19.009Z,96459.25
2022-12-01T23:47:55.490Z,96447.81
2022-12-01T23:50:31.094Z,96455.78
2022-12-01T23:53:03.918Z,96448.91
2022-12-01T23:55:36.778Z,96448.41
2022-12-01T23:58:15.903Z,96446.53
